sensor_id;sensor_type;location;lat;lon;timestamp;P1;durP1;ratioP1;P2;durP2;ratioP2
47353;SDS011;50657;48.830;2.282;2023-02-20T00:00:36;6.65;;;2.08;;
47353;SDS011;50657;48.830;2.282;2023-02-20T00:03:07;4.60;;;1.58;;
47353;SDS011;50657;48.830;2.282;2023-02-20T00:05:34;5.88;;;2.13;;
47353;SDS011;50657;48.830;2.282;2023-02-20T00:08:05;3.28;;;1.60;;
47353;SDS011;50657;48.830;2.282;2023-02-20T00:10:32;6.93;;;2.00;;
47353;SDS011;50657;48.830;2.282;2023-02-20T00:12:59;3.35;;;1.55;;
47353;SDS011;50657;48.830;2.282;2023-02-20T00:15:26;2.47;;;1.80;;
47353;SDS011;50657;48.830;2.282;2023-02-20T00:17:55;5.32;;;2.13;;
47353;SDS011;50657;48.830;2.282;2023-02-20T00:20:23;3.42;;;1.92;;
47353;SDS011;50657;48.830;2.282;2023-02-20T00:22:51;4.65;;;2.28;;
47353;SDS011;50657;48.830;2.282;2023-02-20T00:25:20;6.13;;;1.70;;
47353;SDS011;50657;48.830;2.282;2023-02-20T00:27:49;4.97;;;3.33;;
47353;SDS011;50657;48.830;2.282;2023-02-20T00:30:18;4.43;;;1.88;;
47353;SDS011;50657;48.830;2.282;2023-02-20T00:32:51;5.30;;;1.75;;
47353;SDS011;50657;48.830;2.282;2023-02-20T00:35:20;4.72;;;2.13;;
47353;SDS011;50657;48.830;2.282;2023-02-20T00:37:50;5.93;;;2.58;;
47353;SDS011;50657;48.830;2.282;2023-02-20T00:40:18;5.05;;;1.52;;
47353;SDS011;50657;48.830;2.282;2023-02-20T00:42:50;3.78;;;1.70;;
47353;SDS011;50657;48.830;2.282;2023-02-20T00:45:17;3.20;;;1.52;;
47353;SDS011;50657;48.830;2.282;2023-02-20T00:47:45;2.17;;;1.60;;
47353;SDS011;50657;48.830;2.282;2023-02-20T00:50:13;2.67;;;1.58;;
47353;SDS011;50657;48.830;2.282;2023-02-20T00:52:43;4.47;;;1.35;;
47353;SDS011;50657;48.830;2.282;2023-02-20T00:55:11;2.10;;;1.10;;
47353;SDS011;50657;48.830;2.282;2023-02-20T00:57:42;1.95;;;1.65;;
47353;SDS011;50657;48.830;2.282;2023-02-20T01:00:11;5.25;;;1.52;;
47353;SDS011;50657;48.830;2.282;2023-02-20T01:05:12;4.93;;;1.83;;
47353;SDS011;50657;48.830;2.282;2023-02-20T01:07:39;2.22;;;1.13;;
47353;SDS011;50657;48.830;2.282;2023-02-20T01:10:07;4.35;;;1.02;;
47353;SDS011;50657;48.830;2.282;2023-02-20T01:12:37;3.55;;;1.77;;
47353;SDS011;50657;48.830;2.282;2023-02-20T01:15:12;1.83;;;1.15;;
47353;SDS011;50657;48.830;2.282;2023-02-20T01:17:40;2.58;;;0.93;;
47353;SDS011;50657;48.830;2.282;2023-02-20T01:20:09;3.35;;;1.23;;
47353;SDS011;50657;48.830;2.282;2023-02-20T01:22:36;2.80;;;1.00;;
47353;SDS011;50657;48.830;2.282;2023-02-20T01:25:09;4.55;;;1.75;;
47353;SDS011;50657;48.830;2.282;2023-02-20T01:27:36;5.43;;;0.90;;
47353;SDS011;50657;48.830;2.282;2023-02-20T01:30:03;2.80;;;1.58;;
47353;SDS011;50657;48.830;2.282;2023-02-20T01:32:32;1.83;;;1.17;;
47353;SDS011;50657;48.830;2.282;2023-02-20T01:35:00;1.23;;;0.52;;
47353;SDS011;50657;48.830;2.282;2023-02-20T01:37:29;3.95;;;1.17;;
47353;SDS011;50657;48.830;2.282;2023-02-20T01:39:57;2.78;;;1.27;;
47353;SDS011;50657;48.830;2.282;2023-02-20T01:42:27;1.95;;;1.13;;
47353;SDS011;50657;48.830;2.282;2023-02-20T01:50:24;5.07;;;0.70;;
47353;SDS011;50657;48.830;2.282;2023-02-20T01:52:57;2.10;;;1.08;;
47353;SDS011;50657;48.830;2.282;2023-02-20T01:55:30;2.97;;;0.70;;
47353;SDS011;50657;48.830;2.282;2023-02-20T01:58:03;3.10;;;0.52;;
47353;SDS011;50657;48.830;2.282;2023-02-20T02:00:35;2.25;;;0.70;;
47353;SDS011;50657;48.830;2.282;2023-02-20T02:03:05;1.88;;;0.60;;
47353;SDS011;50657;48.830;2.282;2023-02-20T02:05:34;2.90;;;0.85;;
47353;SDS011;50657;48.830;2.282;2023-02-20T02:08:03;1.05;;;0.52;;
47353;SDS011;50657;48.830;2.282;2023-02-20T02:10:36;1.67;;;0.70;;
47353;SDS011;50657;48.830;2.282;2023-02-20T02:13:12;2.80;;;0.68;;
47353;SDS011;50657;48.830;2.282;2023-02-20T02:15:41;3.33;;;0.95;;
47353;SDS011;50657;48.830;2.282;2023-02-20T02:18:15;3.13;;;0.98;;
47353;SDS011;50657;48.830;2.282;2023-02-20T02:29:56;1.63;;;0.70;;
47353;SDS011;50657;48.830;2.282;2023-02-20T02:35:57;2.33;;;0.50;;
47353;SDS011;50657;48.830;2.282;2023-02-20T02:38:50;2.30;;;0.30;;
47353;SDS011;50657;48.830;2.282;2023-02-20T02:41:23;2.75;;;0.40;;
47353;SDS011;50657;48.830;2.282;2023-02-20T02:46:27;1.77;;;0.82;;
47353;SDS011;50657;48.830;2.282;2023-02-20T02:49:02;3.97;;;1.10;;
47353;SDS011;50657;48.830;2.282;2023-02-20T02:51:35;1.17;;;1.08;;
47353;SDS011;50657;48.830;2.282;2023-02-20T02:54:10;2.25;;;0.55;;
47353;SDS011;50657;48.830;2.282;2023-02-20T02:56:41;2.42;;;0.70;;
47353;SDS011;50657;48.830;2.282;2023-02-20T02:59:11;2.58;;;0.70;;
47353;SDS011;50657;48.830;2.282;2023-02-20T03:01:41;1.63;;;0.82;;
47353;SDS011;50657;48.830;2.282;2023-02-20T03:06:49;1.35;;;0.55;;
47353;SDS011;50657;48.830;2.282;2023-02-20T03:09:46;2.25;;;1.38;;
47353;SDS011;50657;48.830;2.282;2023-02-20T03:12:43;2.03;;;0.40;;
47353;SDS011;50657;48.830;2.282;2023-02-20T03:15:16;3.67;;;0.80;;
47353;SDS011;50657;48.830;2.282;2023-02-20T03:18:04;3.58;;;0.40;;
47353;SDS011;50657;48.830;2.282;2023-02-20T03:20:41;3.47;;;0.40;;
47353;SDS011;50657;48.830;2.282;2023-02-20T03:23:13;2.78;;;0.52;;
47353;SDS011;50657;48.830;2.282;2023-02-20T03:25:45;1.40;;;0.40;;
47353;SDS011;50657;48.830;2.282;2023-02-20T03:28:16;2.50;;;0.73;;
47353;SDS011;50657;48.830;2.282;2023-02-20T03:30:50;2.00;;;0.55;;
47353;SDS011;50657;48.830;2.282;2023-02-20T03:33:23;2.55;;;0.22;;
47353;SDS011;50657;48.830;2.282;2023-02-20T03:36:15;2.08;;;1.45;;
47353;SDS011;50657;48.830;2.282;2023-02-20T03:39:13;0.95;;;0.25;;
47353;SDS011;50657;48.830;2.282;2023-02-20T03:42:01;2.03;;;0.45;;
47353;SDS011;50657;48.830;2.282;2023-02-20T03:44:55;1.90;;;0.30;;
47353;SDS011;50657;48.830;2.282;2023-02-20T03:47:24;2.95;;;0.63;;
47353;SDS011;50657;48.830;2.282;2023-02-20T03:49:54;0.82;;;0.70;;
47353;SDS011;50657;48.830;2.282;2023-02-20T03:52:22;3.30;;;0.50;;
47353;SDS011;50657;48.830;2.282;2023-02-20T03:54:50;1.00;;;0.32;;
47353;SDS011;50657;48.830;2.282;2023-02-20T03:57:19;1.20;;;0.57;;
47353;SDS011;50657;48.830;2.282;2023-02-20T03:59:53;4.90;;;0.47;;
47353;SDS011;50657;48.830;2.282;2023-02-20T04:02:25;2.70;;;0.40;;
47353;SDS011;50657;48.830;2.282;2023-02-20T04:04:59;4.10;;;0.32;;
47353;SDS011;50657;48.830;2.282;2023-02-20T04:07:33;3.85;;;0.90;;
47353;SDS011;50657;48.830;2.282;2023-02-20T04:10:06;2.45;;;0.68;;
47353;SDS011;50657;48.830;2.282;2023-02-20T04:12:39;1.90;;;0.40;;
47353;SDS011;50657;48.830;2.282;2023-02-20T04:15:10;0.68;;;0.38;;
47353;SDS011;50657;48.830;2.282;2023-02-20T04:17:40;2.38;;;0.93;;
47353;SDS011;50657;48.830;2.282;2023-02-20T04:20:13;1.15;;;0.30;;
47353;SDS011;50657;48.830;2.282;2023-02-20T04:22:48;3.00;;;0.80;;
47353;SDS011;50657;48.830;2.282;2023-02-20T04:25:22;1.85;;;0.47;;
47353;SDS011;50657;48.830;2.282;2023-02-20T04:28:06;0.95;;;0.30;;
47353;SDS011;50657;48.830;2.282;2023-02-20T04:30:44;0.50;;;0.20;;
47353;SDS011;50657;48.830;2.282;2023-02-20T04:33:12;1.75;;;0.38;;
47353;SDS011;50657;48.830;2.282;2023-02-20T04:35:41;1.40;;;0.30;;
47353;SDS011;50657;48.830;2.282;2023-02-20T04:38:09;1.65;;;0.30;;
47353;SDS011;50657;48.830;2.282;2023-02-20T04:40:38;1.77;;;0.43;;
47353;SDS011;50657;48.830;2.282;2023-02-20T04:43:05;2.72;;;0.82;;
47353;SDS011;50657;48.830;2.282;2023-02-20T04:45:34;1.13;;;0.28;;
47353;SDS011;50657;48.830;2.282;2023-02-20T04:48:01;3.92;;;0.50;;
47353;SDS011;50657;48.830;2.282;2023-02-20T04:50:29;1.48;;;0.55;;
47353;SDS011;50657;48.830;2.282;2023-02-20T04:52:58;0.40;;;0.20;;
47353;SDS011;50657;48.830;2.282;2023-02-20T04:55:26;1.35;;;0.20;;
47353;SDS011;50657;48.830;2.282;2023-02-20T04:57:57;4.03;;;0.50;;
47353;SDS011;50657;48.830;2.282;2023-02-20T05:00:29;2.75;;;0.50;;
47353;SDS011;50657;48.830;2.282;2023-02-20T05:02:56;2.40;;;0.73;;
47353;SDS011;50657;48.830;2.282;2023-02-20T05:05:25;0.40;;;0.20;;
47353;SDS011;50657;48.830;2.282;2023-02-20T05:07:53;2.58;;;1.00;;
47353;SDS011;50657;48.830;2.282;2023-02-20T05:10:22;5.00;;;0.32;;
47353;SDS011;50657;48.830;2.282;2023-02-20T05:12:49;0.52;;;0.20;;
47353;SDS011;50657;48.830;2.282;2023-02-20T05:15:18;2.10;;;0.32;;
47353;SDS011;50657;48.830;2.282;2023-02-20T05:17:46;2.70;;;1.25;;
47353;SDS011;50657;48.830;2.282;2023-02-20T05:20:14;1.00;;;0.63;;
47353;SDS011;50657;48.830;2.282;2023-02-20T05:22:43;3.75;;;0.85;;
47353;SDS011;50657;48.830;2.282;2023-02-20T05:25:10;1.27;;;0.30;;
47353;SDS011;50657;48.830;2.282;2023-02-20T05:27:39;1.05;;;0.40;;
47353;SDS011;50657;48.830;2.282;2023-02-20T05:30:07;3.05;;;0.50;;
47353;SDS011;50657;48.830;2.282;2023-02-20T05:32:36;4.70;;;0.77;;
47353;SDS011;50657;48.830;2.282;2023-02-20T05:35:03;3.97;;;0.50;;
47353;SDS011;50657;48.830;2.282;2023-02-20T05:37:31;2.97;;;0.40;;
47353;SDS011;50657;48.830;2.282;2023-02-20T05:39:58;2.15;;;1.35;;
47353;SDS011;50657;48.830;2.282;2023-02-20T05:42:25;1.38;;;0.60;;
47353;SDS011;50657;48.830;2.282;2023-02-20T05:44:52;1.92;;;0.95;;
47353;SDS011;50657;48.830;2.282;2023-02-20T05:47:19;0.47;;;0.40;;
47353;SDS011;50657;48.830;2.282;2023-02-20T05:49:48;2.25;;;0.50;;
47353;SDS011;50657;48.830;2.282;2023-02-20T05:52:15;4.05;;;0.70;;
47353;SDS011;50657;48.830;2.282;2023-02-20T05:54:44;2.42;;;0.50;;
47353;SDS011;50657;48.830;2.282;2023-02-20T05:57:12;1.25;;;0.40;;
47353;SDS011;50657;48.830;2.282;2023-02-20T05:59:41;2.60;;;0.73;;
47353;SDS011;50657;48.830;2.282;2023-02-20T06:02:08;2.10;;;0.35;;
47353;SDS011;50657;48.830;2.282;2023-02-20T06:04:35;1.90;;;0.32;;
47353;SDS011;50657;48.830;2.282;2023-02-20T06:07:06;2.60;;;0.60;;
47353;SDS011;50657;48.830;2.282;2023-02-20T06:09:34;1.38;;;0.47;;
47353;SDS011;50657;48.830;2.282;2023-02-20T06:12:02;1.67;;;0.30;;
47353;SDS011;50657;48.830;2.282;2023-02-20T06:14:29;2.00;;;0.20;;
47353;SDS011;50657;48.830;2.282;2023-02-20T06:16:56;1.83;;;0.40;;
47353;SDS011;50657;48.830;2.282;2023-02-20T06:19:24;3.17;;;0.60;;
47353;SDS011;50657;48.830;2.282;2023-02-20T06:21:52;1.33;;;0.32;;
47353;SDS011;50657;48.830;2.282;2023-02-20T06:24:21;1.63;;;0.43;;
47353;SDS011;50657;48.830;2.282;2023-02-20T06:26:48;2.50;;;0.40;;
47353;SDS011;50657;48.830;2.282;2023-02-20T06:29:16;2.58;;;0.55;;
47353;SDS011;50657;48.830;2.282;2023-02-20T06:31:44;4.05;;;0.77;;
47353;SDS011;50657;48.830;2.282;2023-02-20T06:34:11;1.02;;;0.30;;
47353;SDS011;50657;48.830;2.282;2023-02-20T06:36:39;2.10;;;0.57;;
47353;SDS011;50657;48.830;2.282;2023-02-20T06:39:09;0.50;;;0.50;;
47353;SDS011;50657;48.830;2.282;2023-02-20T06:41:39;3.20;;;0.38;;
47353;SDS011;50657;48.830;2.282;2023-02-20T06:44:06;3.22;;;1.65;;
47353;SDS011;50657;48.830;2.282;2023-02-20T06:46:33;3.83;;;0.70;;
47353;SDS011;50657;48.830;2.282;2023-02-20T06:49:00;2.13;;;0.82;;
47353;SDS011;50657;48.830;2.282;2023-02-20T06:51:29;0.75;;;0.40;;
47353;SDS011;50657;48.830;2.282;2023-02-20T06:53:58;1.23;;;0.30;;
47353;SDS011;50657;48.830;2.282;2023-02-20T06:56:27;0.65;;;0.30;;
47353;SDS011;50657;48.830;2.282;2023-02-20T06:58:56;0.85;;;0.32;;
47353;SDS011;50657;48.830;2.282;2023-02-20T07:01:25;4.95;;;0.52;;
47353;SDS011;50657;48.830;2.282;2023-02-20T07:03:54;2.05;;;0.60;;
47353;SDS011;50657;48.830;2.282;2023-02-20T07:06:22;3.33;;;0.38;;
47353;SDS011;50657;48.830;2.282;2023-02-20T07:08:50;1.65;;;0.40;;
47353;SDS011;50657;48.830;2.282;2023-02-20T07:11:18;1.35;;;0.30;;
47353;SDS011;50657;48.830;2.282;2023-02-20T07:13:46;1.05;;;0.50;;
47353;SDS011;50657;48.830;2.282;2023-02-20T07:16:15;2.30;;;0.85;;
47353;SDS011;50657;48.830;2.282;2023-02-20T07:18:43;3.53;;;0.80;;
47353;SDS011;50657;48.830;2.282;2023-02-20T07:21:10;1.08;;;0.30;;
47353;SDS011;50657;48.830;2.282;2023-02-20T07:23:37;1.52;;;0.80;;
47353;SDS011;50657;48.830;2.282;2023-02-20T07:26:05;1.67;;;0.20;;
47353;SDS011;50657;48.830;2.282;2023-02-20T07:28:32;4.13;;;0.80;;
47353;SDS011;50657;48.830;2.282;2023-02-20T07:31:00;2.03;;;1.25;;
47353;SDS011;50657;48.830;2.282;2023-02-20T07:33:29;1.42;;;0.60;;
47353;SDS011;50657;48.830;2.282;2023-02-20T07:35:56;2.60;;;0.52;;
47353;SDS011;50657;48.830;2.282;2023-02-20T07:38:23;2.72;;;0.95;;
47353;SDS011;50657;48.830;2.282;2023-02-20T07:40:50;3.53;;;0.80;;
47353;SDS011;50657;48.830;2.282;2023-02-20T07:43:17;1.30;;;0.73;;
47353;SDS011;50657;48.830;2.282;2023-02-20T07:45:45;2.78;;;1.65;;
47353;SDS011;50657;48.830;2.282;2023-02-20T07:48:12;2.38;;;0.45;;
47353;SDS011;50657;48.830;2.282;2023-02-20T07:50:41;1.80;;;0.40;;
47353;SDS011;50657;48.830;2.282;2023-02-20T07:53:08;1.30;;;0.63;;
47353;SDS011;50657;48.830;2.282;2023-02-20T07:55:35;4.00;;;1.27;;
47353;SDS011;50657;48.830;2.282;2023-02-20T07:58:03;2.60;;;0.43;;
47353;SDS011;50657;48.830;2.282;2023-02-20T08:00:30;4.07;;;0.70;;
47353;SDS011;50657;48.830;2.282;2023-02-20T08:02:57;2.35;;;0.52;;
47353;SDS011;50657;48.830;2.282;2023-02-20T08:05:24;1.95;;;0.63;;
47353;SDS011;50657;48.830;2.282;2023-02-20T08:07:53;1.38;;;0.75;;
47353;SDS011;50657;48.830;2.282;2023-02-20T08:10:21;2.85;;;0.38;;
47353;SDS011;50657;48.830;2.282;2023-02-20T08:12:50;1.92;;;0.50;;
47353;SDS011;50657;48.830;2.282;2023-02-20T08:15:19;1.08;;;0.52;;
47353;SDS011;50657;48.830;2.282;2023-02-20T08:17:47;3.85;;;0.80;;
47353;SDS011;50657;48.830;2.282;2023-02-20T08:20:15;2.78;;;0.80;;
47353;SDS011;50657;48.830;2.282;2023-02-20T08:22:43;3.80;;;0.73;;
47353;SDS011;50657;48.830;2.282;2023-02-20T08:25:13;1.42;;;0.57;;
47353;SDS011;50657;48.830;2.282;2023-02-20T08:27:41;3.35;;;1.20;;
47353;SDS011;50657;48.830;2.282;2023-02-20T08:30:10;2.13;;;0.30;;
47353;SDS011;50657;48.830;2.282;2023-02-20T08:32:38;5.22;;;0.90;;
47353;SDS011;50657;48.830;2.282;2023-02-20T08:35:05;2.80;;;0.80;;
47353;SDS011;50657;48.830;2.282;2023-02-20T08:37:33;3.63;;;1.20;;
47353;SDS011;50657;48.830;2.282;2023-02-20T08:40:00;5.00;;;0.65;;
47353;SDS011;50657;48.830;2.282;2023-02-20T08:42:32;3.35;;;1.00;;
47353;SDS011;50657;48.830;2.282;2023-02-20T08:44:59;1.25;;;0.80;;
47353;SDS011;50657;48.830;2.282;2023-02-20T08:47:27;4.55;;;1.08;;
47353;SDS011;50657;48.830;2.282;2023-02-20T08:49:54;4.85;;;1.45;;
47353;SDS011;50657;48.830;2.282;2023-02-20T08:52:21;1.90;;;1.25;;
47353;SDS011;50657;48.830;2.282;2023-02-20T08:54:48;2.33;;;0.88;;
47353;SDS011;50657;48.830;2.282;2023-02-20T08:57:15;4.35;;;1.48;;
47353;SDS011;50657;48.830;2.282;2023-02-20T08:59:45;3.47;;;0.95;;
47353;SDS011;50657;48.830;2.282;2023-02-20T09:02:14;4.10;;;1.73;;
47353;SDS011;50657;48.830;2.282;2023-02-20T09:04:43;1.13;;;0.47;;
47353;SDS011;50657;48.830;2.282;2023-02-20T09:07:10;3.67;;;0.80;;
47353;SDS011;50657;48.830;2.282;2023-02-20T09:09:38;2.05;;;0.93;;
47353;SDS011;50657;48.830;2.282;2023-02-20T09:12:06;3.80;;;0.88;;
47353;SDS011;50657;48.830;2.282;2023-02-20T09:14:33;1.73;;;0.60;;
47353;SDS011;50657;48.830;2.282;2023-02-20T09:17:02;0.55;;;0.45;;
47353;SDS011;50657;48.830;2.282;2023-02-20T09:19:30;2.03;;;0.77;;
47353;SDS011;50657;48.830;2.282;2023-02-20T09:21:57;4.38;;;1.13;;
47353;SDS011;50657;48.830;2.282;2023-02-20T09:24:24;4.90;;;2.17;;
47353;SDS011;50657;48.830;2.282;2023-02-20T09:26:56;4.38;;;1.40;;
47353;SDS011;50657;48.830;2.282;2023-02-20T09:29:23;4.05;;;1.95;;
47353;SDS011;50657;48.830;2.282;2023-02-20T09:31:50;1.75;;;0.80;;
47353;SDS011;50657;48.830;2.282;2023-02-20T09:34:19;1.65;;;1.02;;
47353;SDS011;50657;48.830;2.282;2023-02-20T09:36:46;1.38;;;0.60;;
47353;SDS011;50657;48.830;2.282;2023-02-20T09:39:13;0.95;;;0.40;;
47353;SDS011;50657;48.830;2.282;2023-02-20T09:41:45;1.33;;;1.23;;
47353;SDS011;50657;48.830;2.282;2023-02-20T09:44:24;1.65;;;0.43;;
47353;SDS011;50657;48.830;2.282;2023-02-20T09:46:59;4.10;;;1.60;;
47353;SDS011;50657;48.830;2.282;2023-02-20T09:49:33;1.50;;;1.15;;
47353;SDS011;50657;48.830;2.282;2023-02-20T09:52:04;3.92;;;1.98;;
47353;SDS011;50657;48.830;2.282;2023-02-20T09:54:39;1.95;;;1.15;;
47353;SDS011;50657;48.830;2.282;2023-02-20T09:57:09;5.35;;;1.88;;
47353;SDS011;50657;48.830;2.282;2023-02-20T09:59:40;2.58;;;1.52;;
47353;SDS011;50657;48.830;2.282;2023-02-20T10:02:13;6.85;;;3.30;;
47353;SDS011;50657;48.830;2.282;2023-02-20T10:04:44;4.57;;;2.05;;
47353;SDS011;50657;48.830;2.282;2023-02-20T10:07:15;1.33;;;1.20;;
47353;SDS011;50657;48.830;2.282;2023-02-20T10:09:50;5.40;;;1.77;;
47353;SDS011;50657;48.830;2.282;2023-02-20T10:12:18;3.70;;;1.02;;
47353;SDS011;50657;48.830;2.282;2023-02-20T10:14:57;7.40;;;1.73;;
47353;SDS011;50657;48.830;2.282;2023-02-20T10:17:38;2.42;;;1.52;;
47353;SDS011;50657;48.830;2.282;2023-02-20T10:20:16;2.78;;;2.15;;
47353;SDS011;50657;48.830;2.282;2023-02-20T10:22:51;4.97;;;1.57;;
47353;SDS011;50657;48.830;2.282;2023-02-20T10:25:24;5.55;;;1.13;;
47353;SDS011;50657;48.830;2.282;2023-02-20T10:27:59;2.10;;;1.25;;
47353;SDS011;50657;48.830;2.282;2023-02-20T10:30:30;4.00;;;0.73;;
47353;SDS011;50657;48.830;2.282;2023-02-20T10:33:01;2.25;;;0.95;;
47353;SDS011;50657;48.830;2.282;2023-02-20T10:35:40;4.85;;;1.23;;
47353;SDS011;50657;48.830;2.282;2023-02-20T10:38:10;3.42;;;0.80;;
47353;SDS011;50657;48.830;2.282;2023-02-20T10:40:41;3.80;;;0.68;;
47353;SDS011;50657;48.830;2.282;2023-02-20T10:43:14;3.63;;;0.95;;
47353;SDS011;50657;48.830;2.282;2023-02-20T10:45:48;1.67;;;0.68;;
47353;SDS011;50657;48.830;2.282;2023-02-20T10:48:19;1.85;;;1.27;;
47353;SDS011;50657;48.830;2.282;2023-02-20T10:50:52;2.60;;;0.75;;
47353;SDS011;50657;48.830;2.282;2023-02-20T10:53:31;3.10;;;0.80;;
47353;SDS011;50657;48.830;2.282;2023-02-20T10:56:05;3.92;;;1.35;;
47353;SDS011;50657;48.830;2.282;2023-02-20T10:58:37;1.70;;;0.25;;
47353;SDS011;50657;48.830;2.282;2023-02-20T11:01:08;1.77;;;0.60;;
47353;SDS011;50657;48.830;2.282;2023-02-20T11:03:40;1.92;;;0.93;;
47353;SDS011;50657;48.830;2.282;2023-02-20T11:06:15;2.17;;;0.75;;
47353;SDS011;50657;48.830;2.282;2023-02-20T11:08:44;1.67;;;0.85;;
47353;SDS011;50657;48.830;2.282;2023-02-20T11:11:19;3.03;;;0.65;;
47353;SDS011;50657;48.830;2.282;2023-02-20T11:13:48;3.45;;;0.98;;
47353;SDS011;50657;48.830;2.282;2023-02-20T11:16:23;3.50;;;1.13;;
47353;SDS011;50657;48.830;2.282;2023-02-20T11:18:58;4.05;;;1.10;;
47353;SDS011;50657;48.830;2.282;2023-02-20T11:21:35;1.75;;;0.60;;
47353;SDS011;50657;48.830;2.282;2023-02-20T11:27:09;1.27;;;0.38;;
47353;SDS011;50657;48.830;2.282;2023-02-20T11:29:48;1.52;;;0.40;;
47353;SDS011;50657;48.830;2.282;2023-02-20T11:32:24;3.03;;;0.52;;
47353;SDS011;50657;48.830;2.282;2023-02-20T11:37:49;1.40;;;0.68;;
47353;SDS011;50657;48.830;2.282;2023-02-20T11:40:37;0.98;;;0.35;;
47353;SDS011;50657;48.830;2.282;2023-02-20T11:43:08;1.60;;;0.47;;
47353;SDS011;50657;48.830;2.282;2023-02-20T11:45:36;1.27;;;1.27;;
47353;SDS011;50657;48.830;2.282;2023-02-20T11:48:05;1.15;;;0.50;;
47353;SDS011;50657;48.830;2.282;2023-02-20T11:50:36;1.17;;;0.70;;
47353;SDS011;50657;48.830;2.282;2023-02-20T11:53:15;1.45;;;0.98;;
47353;SDS011;50657;48.830;2.282;2023-02-20T11:55:45;1.50;;;0.50;;
47353;SDS011;50657;48.830;2.282;2023-02-20T11:58:19;2.28;;;0.68;;
47353;SDS011;50657;48.830;2.282;2023-02-20T12:00:49;1.42;;;0.30;;
47353;SDS011;50657;48.830;2.282;2023-02-20T12:03:19;1.95;;;0.50;;
47353;SDS011;50657;48.830;2.282;2023-02-20T12:05:48;1.05;;;0.95;;
47353;SDS011;50657;48.830;2.282;2023-02-20T12:08:26;8.05;;;3.20;;
47353;SDS011;50657;48.830;2.282;2023-02-20T12:11:00;3.78;;;2.58;;
47353;SDS011;50657;48.830;2.282;2023-02-20T12:13:31;7.53;;;3.42;;
47353;SDS011;50657;48.830;2.282;2023-02-20T12:16:05;5.25;;;2.67;;
47353;SDS011;50657;48.830;2.282;2023-02-20T12:18:48;6.50;;;3.20;;
47353;SDS011;50657;48.830;2.282;2023-02-20T12:21:24;7.90;;;3.75;;
47353;SDS011;50657;48.830;2.282;2023-02-20T12:24:06;5.95;;;3.42;;
47353;SDS011;50657;48.830;2.282;2023-02-20T12:26:45;5.22;;;4.07;;
47353;SDS011;50657;48.830;2.282;2023-02-20T12:29:21;4.85;;;2.95;;
47353;SDS011;50657;48.830;2.282;2023-02-20T12:32:00;4.70;;;2.92;;
47353;SDS011;50657;48.830;2.282;2023-02-20T12:34:40;10.02;;;2.60;;
47353;SDS011;50657;48.830;2.282;2023-02-20T12:37:25;6.80;;;2.50;;
47353;SDS011;50657;48.830;2.282;2023-02-20T12:40:09;5.13;;;3.30;;
47353;SDS011;50657;48.830;2.282;2023-02-20T12:42:55;4.20;;;2.03;;
47353;SDS011;50657;48.830;2.282;2023-02-20T12:45:26;6.05;;;2.10;;
47353;SDS011;50657;48.830;2.282;2023-02-20T12:48:03;4.38;;;1.63;;
47353;SDS011;50657;48.830;2.282;2023-02-20T12:50:45;1.63;;;1.08;;
47353;SDS011;50657;48.830;2.282;2023-02-20T12:56:19;2.08;;;0.73;;
47353;SDS011;50657;48.830;2.282;2023-02-20T12:58:56;2.05;;;0.88;;
47353;SDS011;50657;48.830;2.282;2023-02-20T13:01:30;5.35;;;1.15;;
47353;SDS011;50657;48.830;2.282;2023-02-20T13:03:59;2.95;;;1.05;;
47353;SDS011;50657;48.830;2.282;2023-02-20T13:06:32;3.90;;;1.20;;
47353;SDS011;50657;48.830;2.282;2023-02-20T13:09:06;2.72;;;0.95;;
47353;SDS011;50657;48.830;2.282;2023-02-20T13:11:46;2.85;;;1.13;;
47353;SDS011;50657;48.830;2.282;2023-02-20T13:14:22;4.63;;;1.42;;
47353;SDS011;50657;48.830;2.282;2023-02-20T13:16:58;1.27;;;0.52;;
47353;SDS011;50657;48.830;2.282;2023-02-20T13:19:35;2.72;;;1.00;;
47353;SDS011;50657;48.830;2.282;2023-02-20T13:22:05;2.42;;;1.45;;
47353;SDS011;50657;48.830;2.282;2023-02-20T13:24:33;1.20;;;1.08;;
47353;SDS011;50657;48.830;2.282;2023-02-20T13:27:03;3.70;;;1.38;;
47353;SDS011;50657;48.830;2.282;2023-02-20T13:29:32;6.25;;;0.90;;
47353;SDS011;50657;48.830;2.282;2023-02-20T13:32:02;5.18;;;0.77;;
47353;SDS011;50657;48.830;2.282;2023-02-20T13:40:35;1.40;;;0.70;;
47353;SDS011;50657;48.830;2.282;2023-02-20T13:46:07;1.42;;;0.75;;
47353;SDS011;50657;48.830;2.282;2023-02-20T13:48:42;1.27;;;0.43;;
47353;SDS011;50657;48.830;2.282;2023-02-20T13:54:14;1.38;;;0.50;;
47353;SDS011;50657;48.830;2.282;2023-02-20T13:56:52;2.17;;;0.80;;
47353;SDS011;50657;48.830;2.282;2023-02-20T13:59:27;1.33;;;0.85;;
47353;SDS011;50657;48.830;2.282;2023-02-20T14:01:55;3.25;;;1.20;;
47353;SDS011;50657;48.830;2.282;2023-02-20T14:04:23;2.78;;;1.15;;
47353;SDS011;50657;48.830;2.282;2023-02-20T14:06:51;4.43;;;1.42;;
47353;SDS011;50657;48.830;2.282;2023-02-20T14:09:20;6.65;;;1.42;;
47353;SDS011;50657;48.830;2.282;2023-02-20T14:11:52;3.00;;;1.80;;
47353;SDS011;50657;48.830;2.282;2023-02-20T14:14:25;0.98;;;0.50;;
47353;SDS011;50657;48.830;2.282;2023-02-20T14:17:02;2.45;;;0.90;;
47353;SDS011;50657;48.830;2.282;2023-02-20T14:19:30;0.73;;;0.68;;
47353;SDS011;50657;48.830;2.282;2023-02-20T14:22:12;3.90;;;0.80;;
47353;SDS011;50657;48.830;2.282;2023-02-20T14:24:42;5.80;;;1.10;;
47353;SDS011;50657;48.830;2.282;2023-02-20T14:27:23;0.50;;;0.43;;
47353;SDS011;50657;48.830;2.282;2023-02-20T14:30:02;0.70;;;0.70;;
47353;SDS011;50657;48.830;2.282;2023-02-20T15:21:39;1.33;;;0.70;;
47353;SDS011;50657;48.830;2.282;2023-02-20T15:24:25;2.25;;;0.77;;
47353;SDS011;50657;48.830;2.282;2023-02-20T15:27:08;1.50;;;0.60;;
47353;SDS011;50657;48.830;2.282;2023-02-20T15:29:38;2.90;;;1.98;;
47353;SDS011;50657;48.830;2.282;2023-02-20T15:32:13;1.98;;;0.90;;
47353;SDS011;50657;48.830;2.282;2023-02-20T15:34:43;1.77;;;0.70;;
47353;SDS011;50657;48.830;2.282;2023-02-20T15:37:19;1.10;;;0.43;;
47353;SDS011;50657;48.830;2.282;2023-02-20T15:39:49;6.63;;;1.00;;
47353;SDS011;50657;48.830;2.282;2023-02-20T15:42:17;5.60;;;0.85;;
47353;SDS011;50657;48.830;2.282;2023-02-20T15:44:45;4.38;;;1.45;;
47353;SDS011;50657;48.830;2.282;2023-02-20T15:47:12;4.50;;;1.13;;
47353;SDS011;50657;48.830;2.282;2023-02-20T15:49:40;1.88;;;1.08;;
47353;SDS011;50657;48.830;2.282;2023-02-20T15:52:09;3.10;;;1.17;;
47353;SDS011;50657;48.830;2.282;2023-02-20T15:54:46;2.60;;;1.35;;
47353;SDS011;50657;48.830;2.282;2023-02-20T15:57:17;1.80;;;0.70;;
47353;SDS011;50657;48.830;2.282;2023-02-20T15:59:44;1.15;;;0.80;;
47353;SDS011;50657;48.830;2.282;2023-02-20T16:02:13;1.50;;;0.93;;
47353;SDS011;50657;48.830;2.282;2023-02-20T16:04:43;2.47;;;1.00;;
47353;SDS011;50657;48.830;2.282;2023-02-20T16:07:11;3.63;;;1.25;;
47353;SDS011;50657;48.830;2.282;2023-02-20T16:09:38;2.05;;;0.63;;
47353;SDS011;50657;48.830;2.282;2023-02-20T16:12:08;3.42;;;1.15;;
47353;SDS011;50657;48.830;2.282;2023-02-20T16:14:40;2.93;;;1.20;;
47353;SDS011;50657;48.830;2.282;2023-02-20T16:17:08;2.88;;;1.20;;
47353;SDS011;50657;48.830;2.282;2023-02-20T16:19:41;4.75;;;1.02;;
47353;SDS011;50657;48.830;2.282;2023-02-20T16:22:08;3.63;;;0.60;;
47353;SDS011;50657;48.830;2.282;2023-02-20T16:24:36;3.80;;;0.95;;
47353;SDS011;50657;48.830;2.282;2023-02-20T16:27:03;2.70;;;0.95;;
47353;SDS011;50657;48.830;2.282;2023-02-20T16:29:35;1.38;;;0.68;;
47353;SDS011;50657;48.830;2.282;2023-02-20T16:32:17;3.90;;;2.30;;
47353;SDS011;50657;48.830;2.282;2023-02-20T16:34:45;6.10;;;1.30;;
47353;SDS011;50657;48.830;2.282;2023-02-20T16:37:13;2.00;;;1.23;;
47353;SDS011;50657;48.830;2.282;2023-02-20T16:39:41;1.30;;;0.68;;
47353;SDS011;50657;48.830;2.282;2023-02-20T16:42:18;3.38;;;0.68;;
47353;SDS011;50657;48.830;2.282;2023-02-20T16:44:47;3.25;;;1.15;;
47353;SDS011;50657;48.830;2.282;2023-02-20T16:47:15;1.15;;;0.52;;